createdAt,value
2022-08-10T00:00:59.486Z,19.13
2022-08-10T00:03:27.776Z,19.25
2022-08-10T00:05:57.147Z,19.58
2022-08-10T00:08:26.242Z,19.54
2022-08-10T00:10:55.208Z,19.61
2022-08-10T00:13:24.526Z,19.49
2022-08-10T00:15:54.943Z,19.30
2022-08-10T00:18:31.575Z,19.33
2022-08-10T00:21:06.156Z,19.08
2022-08-10T00:23:34.366Z,19.19
2022-08-10T00:26:02.823Z,19.29
2022-08-10T00:28:30.997Z,19.41
2022-08-10T00:30:59.013Z,19.27
2022-08-10T00:33:27.014Z,19.23
2022-08-10T00:35:55.010Z,19.32
2022-08-10T00:38:24.499Z,19.33
2022-08-10T00:40:52.572Z,19.31
2022-08-10T00:43:23.471Z,19.23
2022-08-10T00:45:59.571Z,19.01
2022-08-10T00:48:29.673Z,18.30
2022-08-10T00:50:57.814Z,17.79
2022-08-10T00:53:27.519Z,17.78
2022-08-10T00:57:12.243Z,17.74
2022-08-10T00:58:44.156Z,17.85
2022-08-10T01:02:09.841Z,18.18
2022-08-10T01:04:57.859Z,18.36
2022-08-10T01:06:57.099Z,18.36
2022-08-10T01:09:31.985Z,18.33
2022-08-10T01:12:37.736Z,18.34
2022-08-10T01:14:57.275Z,18.39
2022-08-10T01:17:50.535Z,18.29
2022-08-10T01:20:30.181Z,18.07
2022-08-10T01:23:28.094Z,17.97
2022-08-10T01:26:31.272Z,18.01
2022-08-10T01:29:09.808Z,17.86
2022-08-10T01:31:43.050Z,18.02
2022-08-10T01:34:14.500Z,18.14
2022-08-10T01:36:49.616Z,17.88
2022-08-10T01:39:23.480Z,17.92
2022-08-10T01:41:56.119Z,17.19
2022-08-10T01:44:27.153Z,17.29
2022-08-10T01:47:22.656Z,17.24
2022-08-10T01:49:59.693Z,17.66
2022-08-10T01:52:29.172Z,17.68
2022-08-10T01:54:58.006Z,17.52
2022-08-10T01:57:26.921Z,17.70
2022-08-10T02:00:01.920Z,17.72
2022-08-10T02:02:32.908Z,17.73
2022-08-10T02:05:02.228Z,17.68
2022-08-10T02:07:32.242Z,17.04
2022-08-10T02:10:03.873Z,17.00
2022-08-10T02:12:33.740Z,17.31
2022-08-10T02:15:05.307Z,17.31
2022-08-10T02:17:57.612Z,16.82
2022-08-10T02:20:31.354Z,16.94
2022-08-10T02:23:02.310Z,16.95
2022-08-10T02:25:41.123Z,16.89
2022-08-10T02:28:12.546Z,17.24
2022-08-10T02:30:57.556Z,17.24
2022-08-10T02:33:27.925Z,16.85
2022-08-10T02:35:57.332Z,16.78
2022-08-10T02:38:59.038Z,16.49
2022-08-10T02:45:14.466Z,16.64
2022-08-10T02:45:22.692Z,16.78
2022-08-10T02:47:16.035Z,17.12
2022-08-10T02:49:51.218Z,17.09
2022-08-10T02:52:23.241Z,16.74
2022-08-10T02:54:54.723Z,16.44
2022-08-10T02:57:26.228Z,16.39
2022-08-10T02:59:59.034Z,16.22
2022-08-10T03:02:30.390Z,16.35
2022-08-10T03:05:02.991Z,16.53
2022-08-10T03:07:43.261Z,16.80
2022-08-10T03:10:16.158Z,16.87
2022-08-10T03:12:44.844Z,16.51
2022-08-10T03:15:15.417Z,16.43
2022-08-10T03:17:58.140Z,16.50
2022-08-10T03:23:20.683Z,16.08
2022-08-10T03:25:53.324Z,16.02
2022-08-10T03:28:23.217Z,16.25
2022-08-10T03:30:51.564Z,16.28
2022-08-10T03:33:20.187Z,16.48
2022-08-10T03:36:43.773Z,16.70
2022-08-10T03:38:37.663Z,16.66
2022-08-10T03:41:06.999Z,16.68
2022-08-10T03:43:35.264Z,16.74
2022-08-10T03:46:07.433Z,16.58
2022-08-10T03:48:49.483Z,16.59
2022-08-10T03:51:20.574Z,16.62
2022-08-10T03:54:02.777Z,16.61
2022-08-10T03:56:33.140Z,16.52
2022-08-10T03:59:01.783Z,16.55
2022-08-10T04:02:42.233Z,16.54
2022-08-10T04:04:23.704Z,16.42
2022-08-10T04:06:55.215Z,16.36
2022-08-10T04:09:24.785Z,16.15
2022-08-10T04:12:10.989Z,16.27
2022-08-10T04:14:50.586Z,16.32
2022-08-10T04:17:59.475Z,16.23
2022-08-10T04:20:10.899Z,16.45
2022-08-10T04:22:41.192Z,16.42
2022-08-10T04:25:10.240Z,16.34
2022-08-10T04:27:38.577Z,16.38
2022-08-10T04:30:07.678Z,16.45
2022-08-10T04:32:35.845Z,16.44
2022-08-10T04:35:05.412Z,16.18
2022-08-10T04:37:34.724Z,16.36
2022-08-10T04:40:05.085Z,16.41
2022-08-10T04:42:53.196Z,16.38
2022-08-10T04:45:49.927Z,16.26
2022-08-10T04:48:40.072Z,16.34
2022-08-10T04:51:06.023Z,16.29
2022-08-10T04:54:05.857Z,16.43
2022-08-10T04:56:31.496Z,16.48
2022-08-10T04:59:00.422Z,16.61
2022-08-10T05:01:37.759Z,16.64
2022-08-10T05:04:35.528Z,16.65
2022-08-10T05:07:04.415Z,16.58
2022-08-10T05:09:32.460Z,16.68
2022-08-10T05:12:01.785Z,16.74
2022-08-10T05:14:29.765Z,16.81
2022-08-10T05:16:57.737Z,16.95
2022-08-10T05:20:03.000Z,16.91
2022-08-10T05:22:14.184Z,16.95
2022-08-10T05:24:42.143Z,17.04
2022-08-10T05:27:11.540Z,17.03
2022-08-10T05:29:39.496Z,17.02
2022-08-10T05:32:07.659Z,16.99
2022-08-10T05:34:35.596Z,17.18
2022-08-10T05:37:04.207Z,17.26
2022-08-10T05:39:33.348Z,17.23
2022-08-10T05:42:01.847Z,17.23
2022-08-10T05:44:31.551Z,17.51
2022-08-10T05:46:59.562Z,17.54
2022-08-10T05:49:27.720Z,17.64
2022-08-10T05:51:55.686Z,17.63
2022-08-10T05:54:25.596Z,17.76
2022-08-10T05:56:58.099Z,17.92
2022-08-10T06:00:31.037Z,18.06
2022-08-10T06:02:32.783Z,18.09
2022-08-10T06:05:07.227Z,18.28
2022-08-10T06:07:36.993Z,18.26
2022-08-10T06:10:10.253Z,18.36
2022-08-10T06:12:55.179Z,18.41
2022-08-10T06:15:50.967Z,18.55
2022-08-10T06:18:15.499Z,18.63
2022-08-10T06:20:44.265Z,18.71
2022-08-10T06:23:13.106Z,19.00
2022-08-10T06:26:12.269Z,18.95
2022-08-10T06:28:35.062Z,18.99
2022-08-10T06:31:04.077Z,19.09
2022-08-10T06:33:37.352Z,19.19
2022-08-10T06:36:07.656Z,19.22
2022-08-10T06:38:36.545Z,19.33
2022-08-10T06:41:09.632Z,19.53
2022-08-10T06:43:38.017Z,19.52
2022-08-10T06:46:10.260Z,19.68
2022-08-10T06:48:45.406Z,19.72
2022-08-10T06:51:18.173Z,19.71
2022-08-10T06:53:53.998Z,19.92
2022-08-10T06:56:36.708Z,20.08
2022-08-10T06:59:21.155Z,20.17
2022-08-10T07:01:52.010Z,20.45
2022-08-10T07:04:32.362Z,20.53
2022-08-10T07:07:03.418Z,20.69
2022-08-10T07:09:32.178Z,20.68
2022-08-10T07:12:08.540Z,20.71
2022-08-10T07:14:39.041Z,20.86
2022-08-10T07:17:07.554Z,21.06
2022-08-10T07:19:49.880Z,21.13
2022-08-10T07:23:22.773Z,21.21
2022-08-10T07:25:13.134Z,21.26
2022-08-10T07:27:58.655Z,21.41
2022-08-10T07:30:30.242Z,21.58
2022-08-10T07:32:58.797Z,21.63
2022-08-10T07:35:34.793Z,21.74
2022-08-10T07:38:06.105Z,21.93
2022-08-10T07:40:35.331Z,22.01
2022-08-10T07:43:03.983Z,21.71
2022-08-10T07:45:33.489Z,22.03
2022-08-10T07:48:07.438Z,22.22
2022-08-10T07:50:40.350Z,22.35
2022-08-10T07:53:11.313Z,21.89
2022-08-10T07:56:07.948Z,22.46
2022-08-10T07:58:31.957Z,22.47
2022-08-10T08:01:00.869Z,22.82
2022-08-10T08:03:30.661Z,23.03
2022-08-10T08:06:05.603Z,23.06
2022-08-10T08:08:40.417Z,22.92
2022-08-10T08:11:09.475Z,22.80
2022-08-10T08:13:55.216Z,22.71
2022-08-10T08:16:24.373Z,23.20
2022-08-10T08:24:04.825Z,23.54
2022-08-10T08:24:34.661Z,23.70
2022-08-10T08:27:04.154Z,23.68
2022-08-10T08:29:35.417Z,23.83
2022-08-10T08:32:04.312Z,23.92
2022-08-10T08:34:33.378Z,23.93
2022-08-10T08:37:04.837Z,23.99
2022-08-10T08:39:33.671Z,24.08
2022-08-10T08:42:37.170Z,24.06
2022-08-10T08:45:12.370Z,24.15
2022-08-10T08:48:07.004Z,24.30
2022-08-10T08:50:43.958Z,24.38
2022-08-10T08:54:01.026Z,24.41
2022-08-10T08:56:21.440Z,24.74
2022-08-10T08:59:13.007Z,24.87
2022-08-10T09:01:51.721Z,25.04
2022-08-10T09:04:34.664Z,25.19
2022-08-10T09:07:59.445Z,25.25
2022-08-10T09:10:22.850Z,25.20
2022-08-10T09:12:57.001Z,25.11
2022-08-10T09:15:40.350Z,25.30
2022-08-10T09:18:20.052Z,24.90
2022-08-10T09:21:19.348Z,25.45
2022-08-10T09:24:04.495Z,25.42
2022-08-10T09:26:45.927Z,25.71
2022-08-10T09:29:16.656Z,25.42
2022-08-10T09:31:55.792Z,25.75
2022-08-10T09:36:20.093Z,25.93
2022-08-10T09:38:02.225Z,26.05
2022-08-10T09:40:59.304Z,25.96
2022-08-10T09:43:36.614Z,26.01
2022-08-10T09:46:11.740Z,26.12
2022-08-10T09:48:47.429Z,26.18
2022-08-10T09:51:44.256Z,25.86
2022-08-10T09:54:31.989Z,25.84
2022-08-10T10:00:11.624Z,26.53
2022-08-10T10:02:48.537Z,26.59
2022-08-10T10:05:27.286Z,26.82
2022-08-10T10:08:01.489Z,26.40
2022-08-10T10:10:42.200Z,26.72
2022-08-10T10:14:01.791Z,27.07
2022-08-10T10:16:40.831Z,27.18
2022-08-10T10:19:28.989Z,27.13
2022-08-10T10:22:15.160Z,27.18
2022-08-10T10:24:49.003Z,26.11
2022-08-10T10:27:25.143Z,25.71
2022-08-10T10:29:59.277Z,26.49
2022-08-10T10:32:39.876Z,27.34
2022-08-10T10:35:30.196Z,27.46
2022-08-10T10:38:01.407Z,27.52
2022-08-10T10:40:39.284Z,27.65
2022-08-10T10:43:17.121Z,27.51
2022-08-10T10:45:53.045Z,27.19
2022-08-10T10:48:34.308Z,27.67
2022-08-10T10:51:16.564Z,27.95
2022-08-10T10:53:49.230Z,28.04
2022-08-10T10:56:21.616Z,27.84
2022-08-10T10:58:56.862Z,28.09
2022-08-10T11:01:30.523Z,28.14
2022-08-10T11:04:19.442Z,28.28
2022-08-10T11:06:57.474Z,28.67
2022-08-10T11:10:08.983Z,28.86
2022-08-10T11:14:26.710Z,29.06
2022-08-10T11:16:09.077Z,29.20
2022-08-10T11:19:10.909Z,29.18
2022-08-10T11:21:53.646Z,29.33
2022-08-10T11:24:46.840Z,29.11
2022-08-10T11:27:32.669Z,29.40
2022-08-10T11:30:07.280Z,29.65
2022-08-10T11:32:51.348Z,29.47
2022-08-10T11:35:24.305Z,29.33
2022-08-10T11:38:34.538Z,29.51
2022-08-10T11:41:12.854Z,30.17
2022-08-10T11:43:58.621Z,30.27
2022-08-10T11:46:32.277Z,30.21
2022-08-10T11:49:43.079Z,29.83
2022-08-10T11:52:15.279Z,30.32
2022-08-10T11:54:50.736Z,30.43
2022-08-10T11:57:19.766Z,30.59
2022-08-10T11:59:58.523Z,30.76
2022-08-10T12:02:30.938Z,29.39
2022-08-10T12:05:02.141Z,30.28
2022-08-10T12:10:06.565Z,28.91
2022-08-10T12:10:23.767Z,30.67
2022-08-10T12:12:56.479Z,31.02
2022-08-10T12:15:34.072Z,31.32
2022-08-10T12:18:05.977Z,31.31
2022-08-10T12:20:37.317Z,29.65
2022-08-10T12:23:19.137Z,31.35
2022-08-10T12:25:57.145Z,31.11
2022-08-10T12:28:49.284Z,31.62
2022-08-10T12:31:23.441Z,31.68
2022-08-10T12:34:08.165Z,31.61
2022-08-10T12:36:41.589Z,31.68
2022-08-10T12:39:15.176Z,31.85
2022-08-10T12:41:51.424Z,31.82
2022-08-10T12:44:24.037Z,31.88
2022-08-10T12:47:18.147Z,31.19
2022-08-10T12:50:31.460Z,29.62
2022-08-10T12:52:50.320Z,31.68
2022-08-10T12:55:19.514Z,31.68
2022-08-10T12:57:54.021Z,32.32
2022-08-10T13:00:29.723Z,32.32
2022-08-10T13:02:59.081Z,29.79
2022-08-10T13:05:28.732Z,30.03
2022-08-10T13:08:34.237Z,31.87
2022-08-10T13:11:04.680Z,31.75
2022-08-10T13:13:54.825Z,30.95
2022-08-10T13:16:23.955Z,32.18
2022-08-10T13:19:01.421Z,33.00
2022-08-10T13:21:34.594Z,32.88
2022-08-10T13:24:05.387Z,33.11
2022-08-10T13:27:23.580Z,31.84
2022-08-10T13:29:36.057Z,29.76
2022-08-10T13:32:09.626Z,32.94
2022-08-10T13:34:44.933Z,32.20
2022-08-10T13:37:20.917Z,33.42
2022-08-10T13:39:59.311Z,32.69
2022-08-10T13:42:33.530Z,33.34
2022-08-10T13:45:35.939Z,32.88
2022-08-10T13:48:41.311Z,33.23
2022-08-10T13:51:17.424Z,33.10
2022-08-10T13:53:54.397Z,33.11
2022-08-10T13:56:35.683Z,33.99
2022-08-10T14:00:36.039Z,34.43
2022-08-10T14:03:01.727Z,34.70
2022-08-10T14:05:39.567Z,34.39
2022-08-10T14:08:22.665Z,34.17
2022-08-10T14:11:10.154Z,33.90
2022-08-10T14:13:53.497Z,34.01
2022-08-10T14:16:40.767Z,34.39
2022-08-10T14:19:21.423Z,34.70
2022-08-10T14:21:50.802Z,34.93
2022-08-10T14:24:24.014Z,35.13
2022-08-10T14:26:58.976Z,34.99
2022-08-10T14:29:53.363Z,34.93
2022-08-10T14:32:31.186Z,34.57
2022-08-10T14:36:22.199Z,34.70
2022-08-10T14:38:10.580Z,34.84
2022-08-10T14:40:47.363Z,34.60
2022-08-10T14:43:28.801Z,34.72
2022-08-10T14:46:06.077Z,33.44
2022-08-10T14:48:45.522Z,35.33
2022-08-10T14:51:47.630Z,35.74
2022-08-10T14:54:17.687Z,35.87
2022-08-10T14:56:50.240Z,36.05
2022-08-10T14:59:19.334Z,36.03
2022-08-10T15:02:38.618Z,35.97
2022-08-10T15:04:56.442Z,35.84
2022-08-10T15:07:37.833Z,36.14
2022-08-10T15:10:13.307Z,34.83
2022-08-10T15:12:46.955Z,35.40
2022-08-10T15:15:16.465Z,35.39
2022-08-10T15:17:53.014Z,34.31
2022-08-10T15:20:26.673Z,34.24
2022-08-10T15:23:01.678Z,35.29
2022-08-10T15:25:57.808Z,34.53
2022-08-10T15:28:35.841Z,35.22
2022-08-10T15:31:21.488Z,35.49
2022-08-10T15:34:09.541Z,35.60
2022-08-10T15:37:40.821Z,35.80
2022-08-10T15:40:23.743Z,35.54
2022-08-10T15:42:58.305Z,35.96
2022-08-10T15:45:26.804Z,36.08
2022-08-10T15:48:02.444Z,36.04
2022-08-10T15:50:34.273Z,36.22
2022-08-10T15:53:15.673Z,36.07
2022-08-10T15:55:54.451Z,35.02
2022-08-10T15:58:39.710Z,35.36
2022-08-10T16:02:12.702Z,35.02
2022-08-10T16:04:08.526Z,36.51
2022-08-10T16:06:44.075Z,34.68
2022-08-10T16:10:23.582Z,36.63
2022-08-10T16:12:17.921Z,36.37
2022-08-10T16:14:58.338Z,36.40
2022-08-10T16:17:27.621Z,35.36
2022-08-10T16:19:58.621Z,36.74
2022-08-10T16:22:36.208Z,37.25
2022-08-10T16:25:22.781Z,37.12
2022-08-10T16:27:53.365Z,37.44
2022-08-10T16:30:21.476Z,37.36
2022-08-10T16:32:50.959Z,37.69
2022-08-10T16:35:19.358Z,37.34
2022-08-10T16:37:58.911Z,36.41
2022-08-10T16:40:31.631Z,36.74
2022-08-10T16:43:27.112Z,36.57
2022-08-10T16:46:10.349Z,36.65
2022-08-10T16:51:30.600Z,37.40
2022-08-10T16:54:00.846Z,37.50
2022-08-10T16:56:33.142Z,37.80
2022-08-10T16:59:06.541Z,37.87
2022-08-10T17:01:39.415Z,37.53
2022-08-10T17:04:10.353Z,37.99
2022-08-10T17:06:42.636Z,37.05
2022-08-10T17:09:45.783Z,37.53
2022-08-10T17:12:27.100Z,37.55
2022-08-10T17:15:34.611Z,37.29
2022-08-10T17:18:05.346Z,37.45
2022-08-10T17:20:44.317Z,37.92
2022-08-10T17:23:19.910Z,37.58
2022-08-10T17:25:51.022Z,37.27
2022-08-10T17:28:40.278Z,37.08
2022-08-10T17:31:24.148Z,37.41
2022-08-10T17:34:21.664Z,37.76
2022-08-10T17:36:57.615Z,36.48
2022-08-10T17:39:54.983Z,35.64
2022-08-10T17:42:36.237Z,35.64
2022-08-10T17:45:48.720Z,35.47
2022-08-10T17:48:51.978Z,34.62
2022-08-10T17:51:20.239Z,32.83
2022-08-10T17:53:49.911Z,31.93
2022-08-10T17:56:18.902Z,32.01
2022-08-10T17:58:50.542Z,31.86
2022-08-10T18:01:40.949Z,30.95
2022-08-10T18:04:15.712Z,30.24
2022-08-10T18:06:44.679Z,29.58
2022-08-10T18:09:19.832Z,29.87
2022-08-10T18:11:51.327Z,29.72
2022-08-10T18:14:25.223Z,29.72
2022-08-10T18:16:55.615Z,29.92
2022-08-10T18:19:25.218Z,29.51
2022-08-10T18:22:01.572Z,29.46
2022-08-10T18:24:30.473Z,29.48
2022-08-10T18:27:03.802Z,29.19
2022-08-10T18:29:35.603Z,29.38
2022-08-10T18:32:05.298Z,28.76
2022-08-10T18:34:35.440Z,28.61
2022-08-10T18:37:06.962Z,29.00
2022-08-10T18:39:37.680Z,29.22
2022-08-10T18:42:11.782Z,28.28
2022-08-10T18:44:43.953Z,27.85
2022-08-10T18:47:16.239Z,27.92
2022-08-10T18:49:59.558Z,27.74
2022-08-10T18:52:32.021Z,27.33
2022-08-10T18:55:22.870Z,27.09
2022-08-10T18:58:06.085Z,27.45
2022-08-10T19:00:40.546Z,27.75
2022-08-10T19:03:23.780Z,27.90
2022-08-10T19:06:11.502Z,26.89
2022-08-10T19:09:46.062Z,26.99
2022-08-10T19:12:30.661Z,26.49
2022-08-10T19:15:15.051Z,26.74
2022-08-10T19:18:06.354Z,26.68
2022-08-10T19:20:50.533Z,26.24
2022-08-10T19:24:42.640Z,26.41
2022-08-10T19:27:16.040Z,26.22
2022-08-10T19:30:08.501Z,26.25
2022-08-10T19:32:52.963Z,26.56
2022-08-10T19:35:30.191Z,26.32
2022-08-10T19:38:07.802Z,26.32
2022-08-10T19:41:09.570Z,26.40
2022-08-10T19:44:00.576Z,25.94
2022-08-10T19:46:42.551Z,25.81
2022-08-10T19:49:29.742Z,25.30
2022-08-10T19:52:11.296Z,25.07
2022-08-10T19:55:08.531Z,25.19
2022-08-10T19:57:50.219Z,25.33
2022-08-10T20:00:27.001Z,24.66
2022-08-10T20:03:11.960Z,25.07
2022-08-10T20:06:13.355Z,24.34
2022-08-10T20:08:50.996Z,24.44
2022-08-10T20:11:44.618Z,24.13
2022-08-10T20:14:21.984Z,24.61
2022-08-10T20:16:53.504Z,23.84
2022-08-10T20:19:52.778Z,22.89
2022-08-10T20:22:29.102Z,23.23
2022-08-10T20:25:04.520Z,23.46
2022-08-10T20:27:58.757Z,21.48
2022-08-10T20:30:33.602Z,21.54
2022-08-10T20:33:09.897Z,23.41
2022-08-10T20:35:53.465Z,23.40
2022-08-10T20:38:30.585Z,23.01
2022-08-10T20:41:07.872Z,22.89
2022-08-10T20:43:44.159Z,23.34
2022-08-10T20:49:40.363Z,21.67
2022-08-10T20:52:09.617Z,22.19
2022-08-10T20:54:42.728Z,22.18
2022-08-10T20:57:56.891Z,21.45
2022-08-10T21:00:26.570Z,20.99
2022-08-10T21:03:16.006Z,21.28
2022-08-10T21:06:05.441Z,21.63
2022-08-10T21:08:44.466Z,21.61
2022-08-10T21:11:20.148Z,21.85
2022-08-10T21:14:27.029Z,22.07
2022-08-10T21:17:35.005Z,22.76
2022-08-10T21:20:30.594Z,22.44
2022-08-10T21:23:05.500Z,21.84
2022-08-10T21:25:44.121Z,22.14
2022-08-10T21:28:56.141Z,22.12
2022-08-10T21:31:37.425Z,22.34
2022-08-10T21:45:38.543Z,23.06
2022-08-10T21:48:35.926Z,22.89
2022-08-10T21:52:01.907Z,23.02
2022-08-10T21:54:44.329Z,22.64
2022-08-10T21:58:18.945Z,22.52
2022-08-10T22:01:42.223Z,22.43
2022-08-10T22:05:10.672Z,21.90
2022-08-10T22:07:57.740Z,22.06
2022-08-10T22:10:49.274Z,21.89
2022-08-10T22:13:37.279Z,22.25
2022-08-10T22:16:28.065Z,22.54
2022-08-10T22:19:17.880Z,22.55
2022-08-10T22:38:18.670Z,22.20
2022-08-10T22:41:12.763Z,21.68
2022-08-10T22:44:01.226Z,21.03
2022-08-10T22:46:51.353Z,21.27
2022-08-10T22:49:23.786Z,21.67
2022-08-10T22:53:01.717Z,21.58
2022-08-10T22:56:35.026Z,21.63
2022-08-10T23:03:33.048Z,21.81
2022-08-10T23:07:00.834Z,21.60
2022-08-10T23:13:35.978Z,20.87
2022-08-10T23:20:06.222Z,20.56
2022-08-10T23:27:13.076Z,21.24
2022-08-10T23:32:01.143Z,21.48
2022-08-10T23:42:36.661Z,21.34
2022-08-10T23:45:52.508Z,21.30
2022-08-10T23:49:16.165Z,21.21
2022-08-10T23:52:18.856Z,21.05
2022-08-10T23:55:03.670Z,21.13
2022-08-10T23:58:39.539Z,21.08
